Tiempo atmosférico en la estación meteorológica de Anaga, Santa Cruz de Tenerife (19 m.)



Fecha
DESCASC
Temp. máxima en grados centígrados (hora)
DESCASC
Temp. mínima en grados centígrados (hora)
DESCASC
Temp. media en grados centígrados
DESCASC
Racha de viento máxima en m/sg (hora)
DESCASC
Velocidad máxima media en intervalos de 10 minutos(hora)
DESCASC
Precipitaciones diarias en mm
DESCASC
Precipitaciones de 00:00 a 06:00 en mm
DESCASC
Precipitaciones de 06:00 a 12:00 en mm
DESCASC
Precipitaciones de 12:00 a 18:00 en mm
DESCASC
Precipitaciones de 18:00 a 24:00 en mm
DESCASC
13-10-2019 25.7 (13:00) 18.8 (08:10) 22.3 4.72 (15:00) 2.5 (13:40) 0 0 0 0 0
12-10-2019 27 (15:10) 19.6 (06:00) 23.3 7.5 (15:40) 3.61 (17:30) 0 0 0 0 0
10-10-2019 27.1 (15:10) 21.9 (00:00) 24.5 9.17 (15:10) 4.17 (16:20) 0 0 0 0 0
09-10-2019 27.1 (16:00) 21.5 (00:00) 24.3 10 (14:00) 4.44 (15:30) 0 0 0 0 0
08-10-2019 28.6 (14:40) 21.7 (00:00) 25.2 10 (17:20) 4.72 (17:20) 0 0 0 0 0
07-10-2019 27.6 (16:00) 21.7 (00:00) 24.7 9.72 (21:20) 4.44 (21:20) 0 0 0 0 0
06-10-2019 26.5 (15:10) 22.2 (00:00) 24.4 7.78 (17:50) 3.33 (15:40) 0 0 0 0 0
05-10-2019 25.5 (14:50) 22.6 (23:20) 24.1 9.72 (14:00) 3.61 (14:10) 0 0 0 0 0
04-10-2019 28.8 (14:00) 22.7 (00:00) 25.8 11.39 (18:20) 5.28 (18:30) 0 0 0 0 0
03-10-2019 28.8 (16:30) 21 (00:00) 24.9 8.61 (14:20) 4.17 (17:10) 0 0 0 0 0
02-10-2019 27.9 (14:20) 19.8 (00:00) 23.8 7.5 (16:00) 3.89 (15:50) 0 0 0 0 0
01-10-2019 33.7 (13:20) 21.3 (00:00) 27.5 7.5 (16:20) 4.17 (15:10) 0 0 0 0 0
30-09-2019 30.7 (14:50) 20.4 (00:00) 25.6 9.17 (15:00) 5 (16:20) 0 0 0 0 0
29-09-2019 28 (15:20) 22.3 (00:00) 25.1 8.61 (04:40) 4.44 (13:00) 0 0 0 0 0
28-09-2019 27.7 (14:20) 21.9 (00:00) 24.8 8.89 (15:10) 4.44 (15:30) 0 0 0 0 0
27-09-2019 27.5 (14:10) 22.3 (00:00) 24.9 11.39 (17:20) 5 (16:30) 0 0 0 0 0
26-09-2019 27.8 (15:10) 22.8 (00:00) 25.3 8.61 (14:50) 4.44 (15:50) 0 0 0 0 0
25-09-2019 26.8 (13:50) 22.1 (00:00) 24.4 11.39 (13:20) 4.72 (14:50) 0 0 0 0 0
24-09-2019 26.8 (15:30) 22.1 (00:00) 24.4 10.28 (17:10) 4.17 (13:50) 0 0 0 0 0
23-09-2019 27.1 (13:50) 22.3 (00:00) 24.7 8.89 (13:40) 3.89 (16:20) 0 0 0 0 0
22-09-2019 29.8 (13:30) 21 (00:00) 25.4 8.89 (17:30) 4.44 (16:00) 0 0 0 0 0
21-09-2019 27.3 (15:20) 19.8 (00:00) 23.5 7.22 (14:30) 3.06 (14:00) 0 0 0 0 0
20-09-2019 29 (14:00) 22.1 (00:00) 25.6 8.89 (16:40) 4.17 (17:30) 0 0 0 0 0
19-09-2019 27.3 (15:20) 22.1 (00:00) 24.7 11.39 (23:10) 4.17 (13:10) 0 0 0 0 0
18-09-2019 28.8 (15:50) 20.9 (00:00) 24.8 7.78 (15:00) 3.89 (14:50) 0 0 0 0 0
17-09-2019 29.7 (15:50) 22.5 (00:00) 26.1 8.61 (11:40) 4.17 (17:00) 0 0 0 0 0

Gráficas

Temp. máximas Temp. mínimas Temp. medias Precipitaciones Rachas de viento máximas Velocidades máximas media en intervalos de 10 minutos

Datos horarios

Fecha y hora oficial Temperatura (ºC) Velocidad del viento (km/h) Dirección del viento Racha (km/h) Dirección de racha Precipitación (mm) Presión (hPa) Tendencia (hPa) Humedad (%)
2019-10-16 23:00:00 20.5 4 Norte 9 Norte 0 -- -- 69
2019-10-16 22:00:00 21.3 3 Norte 10 Norte 0 -- -- 65
2019-10-16 21:00:00 21.8 3 Norte 12 Norte 0 -- -- 64
2019-10-16 20:00:00 22.3 4 Norte 15 Sur 0 -- -- 60
2019-10-16 19:00:00 22.8 4 Sudoeste 16 Sur 0 -- -- 61
2019-10-16 18:00:00 23.2 7 Sur 21 Sudeste 0 -- -- 61
2019-10-16 17:00:00 23.3 11 Sudeste 22 Sudeste 0 -- -- 63
2019-10-16 16:00:00 23.7 7 Sudeste 23 Sur 0 -- -- 60
2019-10-16 15:00:00 23.2 6 Sudeste 24 Sudeste 0 -- -- 60
2019-10-16 14:00:00 23.6 8 Norte 25 Sur 0 -- -- 57
2019-10-16 13:00:00 24 7 Sudeste 25 Sur 0 -- -- 59
2019-10-16 12:00:00 24.7 4 Norte 21 Norte 0 -- -- 59
2019-10-16 11:00:00 24.6 9 Sur 19 Sudeste 0 -- -- 60
2019-10-16 10:00:00 22.9 5 Norte 17 Norte 0 -- -- 60
2019-10-16 09:00:00 21 3 Norte 5 Norte 0 -- -- 70
2019-10-16 08:00:00 21 0 Calma 10 Noroeste 0 -- -- 69
2019-10-16 07:00:00 21.6 3 Norte 17 Sur 0 -- -- 68
2019-10-16 06:00:00 21.6 8 Sur 18 Sur 0 -- -- 69
2019-10-16 05:00:00 21.6 5 Sudoeste 17 Sur 0 -- -- 69
2019-10-16 04:00:00 21.5 3 Noroeste 15 Sur 0 -- -- 69
2019-10-16 03:00:00 21 0 Calma 17 Sur 0 -- -- 68
2019-10-16 02:00:00 21.3 3 Noroeste 13 Este 0 -- -- 68
2019-10-16 01:00:00 21.5 2 Noroeste 21 Sur 0 -- -- 66
2019-10-16 00:00:00 21.6 2 Norte 18 Sur 0 -- -- 64
2019-10-15 23:00:00 22 8 Sudoeste 25 Sur 0 -- -- 66
2019-10-15 22:00:00 22 4 Sur 21 Sudeste 0 -- -- 64
2019-10-15 21:00:00 21.9 6 Sur 29 Sur 0 -- -- 63
2019-10-15 20:00:00 22.2 3 Noroeste 16 Noroeste 0 -- -- 60
2019-10-15 19:00:00 22.9 3 Norte 17 Norte 0 -- -- 59
2019-10-15 18:00:00 23.4 7 Norte 22 Norte 0 -- -- 55
2019-10-15 17:00:00 25.4 8 Norte 24 Norte 0 -- -- 49
2019-10-15 16:00:00 24.7 15 Sur 32 Sudeste 0 -- -- 52
2019-10-15 15:00:00 23.3 10 Sudeste 29 Sudeste 0 -- -- 59
2019-10-15 14:00:00 23.6 12 Sudeste 26 Sudeste 0 -- -- 59
2019-10-15 13:00:00 24.6 9 Sudeste 21 Sudeste 0 -- -- 57
2019-10-15 12:00:00 25.2 10 Sudeste 23 Sudeste 0 -- -- 54
2019-10-15 11:00:00 23.1 10 Sudeste 28 Sudeste 0 -- -- 59
2019-10-15 10:00:00 22.8 7 Sur 23 Sudeste 0 -- -- 62
2019-10-15 09:00:00 21.6 4 Sudoeste 15 Sur 0 -- -- 65
2019-10-15 08:00:00 21.2 2 Norte 8 Norte 0 -- -- 66
2019-10-15 07:00:00 21 2 Noroeste 9 Norte 0 -- -- 70
2019-10-15 06:00:00 20.8 0 Calma 11 Norte 0 -- -- 76
2019-10-15 05:00:00 20.6 5 Norte 14 Norte 0 -- -- 76
2019-10-15 04:00:00 20.8 5 Norte 15 Norte 0 -- -- 74
2019-10-15 03:00:00 20.7 2 Norte 9 Norte 0 -- -- 68
2019-10-15 02:00:00 21.1 4 Norte 16 Norte 0 -- -- 64
2019-10-15 01:00:00 21.4 7 Norte 16 Norte 0 -- -- 65
2019-10-15 00:00:00 21.6 6 Norte 17 Noroeste 0 -- -- 67
2019-10-14 23:00:00 21.6 6 Norte 17 Noroeste 0 -- -- 67
2019-10-14 22:00:00 21.8 6 Norte 16 Norte 0 -- -- 66
2019-10-14 21:00:00 21.8 6 Norte 14 Noroeste 0 -- -- 66
2019-10-14 20:00:00 22 6 Norte 20 Norte 0 -- -- 65
2019-10-14 19:00:00 22.5 8 Norte 26 Norte 0 -- -- 62
2019-10-14 18:00:00 23.2 9 Norte 28 Norte 0 -- -- 59
2019-10-14 17:00:00 25 11 Nordeste 32 Nordeste 0 -- -- 53
2019-10-14 16:00:00 25.4 10 Norte 25 Nordeste 0 -- -- 52
2019-10-14 15:00:00 25 12 Norte 28 Norte 0 -- -- 56
2019-10-14 14:00:00 25.3 11 Norte 24 Norte 0 -- -- 56
2019-10-14 13:00:00 23.8 10 Norte 19 Norte 0 -- -- 61
2019-10-14 12:00:00 22.8 10 Norte 22 Norte 0 -- -- 69
2019-10-14 11:00:00 23.1 7 Norte 21 Norte 0 -- -- 65
2019-10-14 10:00:00 22.5 6 Norte 15 Norte 0 -- -- 68
2019-10-14 09:00:00 20.9 5 Norte 14 Oeste 0 -- -- 75
2019-10-14 08:00:00 20.1 4 Norte 14 Noroeste 0 -- -- 81
2019-10-14 07:00:00 20 3 Norte 7 Norte 0.2 -- -- 86
2019-10-14 06:00:00 20.4 3 Norte 14 Norte 0 -- -- 79
2019-10-14 05:00:00 20.6 5 Norte 13 Norte 0 -- -- 79
2019-10-14 04:00:00 21.2 5 Norte 13 Norte 0.2 -- -- 78
2019-10-14 03:00:00 21.8 3 Sudoeste 6 Sur 0 -- -- 78
2019-10-14 02:00:00 21.6 0 Calma 8 Oeste 0 -- -- 78
2019-10-14 01:00:00 22 3 Noroeste 8 Noroeste 0 -- -- 76
2019-10-14 00:00:00 22 0 Calma 5 Norte 0 -- -- 70
2019-10-13 23:00:00 21.4 0 Calma 6 Norte 0 -- -- 69
2019-10-13 22:00:00 21.2 4 Norte 7 Norte 0 -- -- 68
2019-10-13 21:00:00 22.3 2 Norte 7 Sur 0 -- -- 66
2019-10-13 20:00:00 22.8 2 Sur 9 Sudoeste 0 -- -- 65
2019-10-13 19:00:00 23.3 4 Sur 10 Sur 0 -- -- 63
2019-10-13 18:00:00 23.6 5 Sur 13 Sur 0 -- -- 62
2019-10-13 17:00:00 25.2 6 Sur 15 Sur 0 -- -- 57
2019-10-13 16:00:00 25.4 8 Sur 16 Sur 0 -- -- 56
2019-10-13 15:00:00 25.3 7 Sur 17 Sudeste 0 -- -- 58
2019-10-13 14:00:00 25.5 9 Sur 16 Sur 0 -- -- 57
2019-10-13 13:00:00 25.7 8 Sur 15 Sur 0 -- -- 57
2019-10-13 12:00:00 24.9 7 Sur 14 Sur 0 -- -- 60
2019-10-13 11:00:00 24.6 8 Sur 16 Sur 0 -- -- 61
2019-10-13 10:00:00 23.2 5 Sudeste 11 Sudoeste 0 -- -- 61
2019-10-13 09:00:00 19.7 4 Norte 8 Noroeste 0 -- -- 66
2019-10-13 08:00:00 18.9 5 Norte 9 Norte 0 -- -- 70
2019-10-13 07:00:00 19.2 4 Norte 7 Norte 0 -- -- 70
2019-10-13 06:00:00 19.4 4 Norte 7 Norte 0 -- -- 70
2019-10-13 05:00:00 20.3 3 Norte 7 Norte 0 -- -- 70
2019-10-13 04:00:00 19.9 4 Norte 7 Nordeste 0 -- -- 71
2019-10-13 03:00:00 19.9 5 Norte 8 Norte 0 -- -- 70
2019-10-13 02:00:00 20.5 4 Norte 8 Norte 0 -- -- 70
2019-10-13 01:00:00 21.6 3 Norte 7 Nordeste 0 -- -- 67
2019-10-13 00:00:00 22.1 2 Noroeste 9 Norte 0 -- -- 66
2019-10-12 23:00:00 22.4 5 Norte 11 Norte 0 -- -- 66
2019-10-12 22:00:00 22.7 3 Noroeste 13 Noroeste 0 -- -- 64
2019-10-12 21:00:00 22.5 5 Norte 13 Norte 0 -- -- 64
2019-10-12 20:00:00 22.6 6 Norte 19 Noroeste 0 -- -- 63
2019-10-12 19:00:00 23.2 10 Norte 27 Noroeste 0 -- -- 59
2019-10-12 18:00:00 24.5 8 Norte 27 Norte 0 -- -- 52
2019-10-12 17:00:00 26.2 13 Norte 25 Norte 0 -- -- 47
2019-10-12 16:00:00 26.6 11 Norte 27 Norte 0 -- -- 46
2019-10-12 15:00:00 26.7 6 Sudeste 26 Sur 0 -- -- 47
2019-10-12 14:00:00 25.7 10 Sur 23 Sudeste 0 -- -- 55
2019-10-12 13:00:00 25.7 8 Sudeste 17 Este 0 -- -- 51
2019-10-12 12:00:00 24.8 6 Sudeste 19 Sudeste 0 -- -- 53
2019-10-12 11:00:00 23.6 5 Sudeste 15 Sudeste 0 -- -- 58
2019-10-12 10:00:00 22.7 0 Calma 5 Sur 0 -- -- 60
2019-10-12 09:00:00 20.7 0 Calma 7 Noroeste 0 -- -- 69
2019-10-12 08:00:00 20.3 2 Norte 6 Norte 0 -- -- 70
2019-10-12 07:00:00 19.7 4 Norte 7 Norte 0 -- -- 70
2019-10-12 06:00:00 19.6 3 Norte 8 Norte 0 -- -- 70
2019-10-12 05:00:00 20.5 2 Norte 6 Oeste 0 -- -- 66
2019-10-12 04:00:00 22 2 Oeste 14 Nordeste 0 -- -- 60
2019-10-12 03:00:00 22.4 4 Norte 14 Oeste 0 -- -- 61
2019-10-12 02:00:00 22.4 7 Noroeste 19 Nordeste 0 -- -- 60
2019-10-12 01:00:00 22.8 6 Norte 26 Norte 0 -- -- 60
2019-10-12 00:00:00 22.9 8 Norte 22 Norte 0 -- -- 60
2019-10-11 23:00:00 22.9 5 Norte 24 Norte 0 -- -- 62
2019-10-11 22:00:00 22.9 9 Norte 25 Norte 0 -- -- 66
2019-10-11 21:00:00 22.9 8 Norte 21 Norte 0 -- -- 65
2019-10-11 20:00:00 23 5 Norte 21 Norte 0 -- -- 65
2019-10-11 19:00:00 23.5 7 Norte 24 Norte 0 -- -- 63
2019-10-11 18:00:00 24.3 9 Norte 24 Norte 0 -- -- 60
2019-10-11 17:00:00 25.9 12 Norte 26 Norte 0 -- -- 53
2019-10-11 16:00:00 26 12 Norte 27 Noroeste 0 -- -- 53
2019-10-11 15:00:00 26.6 11 Norte 26 Norte 0 -- -- 52
2019-10-11 14:00:00 25.4 8 Norte 26 Noroeste 0 -- -- 53
2019-10-11 13:00:00 24.9 9 Norte 22 Norte 0 -- -- 54
2019-10-11 12:00:00 24.3 7 Norte 21 Norte 0 -- -- 58
2019-10-11 11:00:00 23.6 5 Norte 17 Noroeste 0 -- -- 64
2019-10-11 10:00:00 23.6 5 Norte 14 Nordeste 0 -- -- 64
2019-10-11 09:00:00 21.8 0 Calma 12 Nordeste 0 -- -- 71
2019-10-11 08:00:00 21.5 3 Noroeste 9 Este 0 -- -- 73
2019-10-11 07:00:00 21 0 Calma 7 Noroeste 0 -- -- 74
2019-10-11 06:00:00 21.3 0 Calma 6 Noroeste 0 -- -- 71
2019-10-11 05:00:00 21.9 0 Calma 6 Noroeste 0 -- -- 71
2019-10-11 04:00:00 22 0 Calma 10 Norte 0 -- -- 71
2019-10-11 03:00:00 21.7 0 Calma 10 Noroeste 0 -- -- 71
2019-10-11 02:00:00 22.2 4 Norte 12 Nordeste 0 -- -- 68
2019-10-11 01:00:00 22.5 6 Norte 12 Norte 0 -- -- 66
2019-10-11 00:00:00 22.8 4 Norte 13 Norte 0 -- -- 65
2019-10-10 23:00:00 23.2 5 Norte 17 Norte 0 -- -- 65
2019-10-10 22:00:00 23.2 6 Norte 14 Nordeste 0 -- -- 64
2019-10-10 21:00:00 23.4 3 Norte 12 Norte 0 -- -- 65
2019-10-10 20:00:00 23.5 5 Norte 14 Norte 0 -- -- 62
2019-10-10 19:00:00 23.7 5 Norte 17 Norte 0 -- -- 63
2019-10-10 18:00:00 24.5 8 Norte 19 Nordeste 0 -- -- 60
2019-10-10 17:00:00 26.7 10 Norte 27 Noroeste 0 -- -- 55
2019-10-10 16:00:00 26.8 10 Norte 33 Norte 0 -- -- 54
2019-10-10 15:00:00 27 12 Norte 29 Noroeste 0 -- -- 51
2019-10-10 14:00:00 27 11 Norte 28 Norte 0 -- -- 53
2019-10-10 13:00:00 25.9 8 Norte 25 Nordeste 0 -- -- 52
2019-10-10 12:00:00 25.6 11 Norte 26 Norte 0 -- -- 57
2019-10-10 11:00:00 24.6 10 Norte 22 Norte 0 -- -- 57
2019-10-10 10:00:00 23.6 7 Norte 20 Noroeste 0 -- -- 62
2019-10-10 09:00:00 22.8 5 Norte 14 Nordeste 0 -- -- 68
2019-10-10 08:00:00 22.1 5 Norte 18 Nordeste 0 -- -- 71
2019-10-10 07:00:00 22.3 4 Norte 12 Norte 0 -- -- 65
2019-10-10 06:00:00 22.5 4 Norte 18 Norte 0 -- -- 67
2019-10-10 05:00:00 22.7 3 Norte 16 Noroeste 0 -- -- 70
2019-10-10 04:00:00 22.8 7 Norte 18 Norte 0 -- -- 68
2019-10-10 03:00:00 22.1 3 Norte 9 Norte 0 -- -- 72
2019-10-10 02:00:00 22.6 3 Noroeste 13 Norte 0 -- -- 67
2019-10-10 01:00:00 22.7 3 Norte 13 Norte 0 -- -- 69
2019-10-10 00:00:00 22.8 5 Norte 24 Norte 0 -- -- 68
2019-10-09 23:00:00 22.8 5 Norte 17 Oeste 0 -- -- 68
2019-10-09 22:00:00 22.9 6 Nordeste 16 Norte 0 -- -- 66
2019-10-09 21:00:00 23 10 Norte 24 Norte 0 -- -- 67
2019-10-09 20:00:00 23.2 4 Nordeste 22 Norte 0 -- -- 67
2019-10-09 19:00:00 23.6 10 Norte 24 Norte 0 -- -- 64
2019-10-09 18:00:00 24.7 10 Norte 27 Norte 0 -- -- 58
2019-10-09 17:00:00 26.4 11 Norte 30 Norte 0 -- -- 53
2019-10-09 16:00:00 27.1 14 Norte 30 Norte 0 -- -- 49
2019-10-09 15:00:00 26.7 13 Norte 30 Norte 0 -- -- 53
2019-10-09 14:00:00 26.2 15 Norte 36 Nordeste 0 -- -- 52
2019-10-09 13:00:00 26.3 13 Norte 30 Norte 0 -- -- 54
2019-10-09 12:00:00 25.8 11 Norte 29 Norte 0 -- -- 54
2019-10-09 11:00:00 24.8 10 Norte 27 Nordeste 0 -- -- 57
2019-10-09 10:00:00 23.7 8 Norte 25 Norte 0 -- -- 60
2019-10-09 09:00:00 22.1 7 Norte 26 Nordeste 0 -- -- 67
2019-10-09 08:00:00 21.6 9 Norte 27 Norte 0 -- -- 68
2019-10-09 07:00:00 21.6 9 Norte 24 Norte 0 -- -- 67
2019-10-09 06:00:00 21.7 11 Norte 28 Nordeste 0 -- -- 66
2019-10-09 05:00:00 21.6 10 Norte 26 Norte 0 -- -- 67
2019-10-09 04:00:00 21.7 12 Norte 27 Norte 0 -- -- 67
2019-10-09 03:00:00 21.8 9 Norte 23 Noroeste 0 -- -- 65
2019-10-09 02:00:00 21.9 10 Norte 28 Nordeste 0 -- -- 69
2019-10-09 01:00:00 22.2 12 Norte 29 Norte 0 -- -- 67
2019-10-09 00:00:00 22.2 10 Norte 26 Norte 0 -- -- 68
2019-10-08 23:00:00 22.3 11 Norte 29 Norte 0 -- -- 66
2019-10-08 22:00:00 22.4 12 Norte 29 Norte 0 -- -- 66
2019-10-08 21:00:00 22.6 14 Norte 30 Noroeste 0 -- -- 65
2019-10-08 20:00:00 23 12 Norte 30 Norte 0 -- -- 64
2019-10-08 19:00:00 24 10 Norte 27 Norte 0 -- -- 61
2019-10-08 18:00:00 24.8 11 Norte 36 Norte 0 -- -- 58
2019-10-08 17:00:00 26.3 14 Norte 32 Noroeste 0 -- -- 55
2019-10-08 16:00:00 27.5 10 Norte 23 Noroeste 0 -- -- 53
2019-10-08 15:00:00 28.4 8 Noroeste 21 Nordeste 0 -- -- 50
2019-10-08 14:00:00 27.8 8 Norte 22 Norte 0 -- -- 50
2019-10-08 13:00:00 27 11 Norte 28 Nordeste 0 -- -- 51
2019-10-08 12:00:00 26 13 Norte 29 Norte 0 -- -- 55
2019-10-08 11:00:00 24.9 13 Norte 30 Norte 0 -- -- 59
2019-10-08 10:00:00 23.7 13 Norte 31 Norte 0 -- -- 64
2019-10-08 09:00:00 22.3 13 Norte 29 Nordeste 0 -- -- 69
2019-10-08 08:00:00 21.8 12 Norte 27 Norte 0 -- -- 70
2019-10-08 07:00:00 21.7 8 Norte 30 Norte 0 -- -- 72
2019-10-08 06:00:00 21.7 8 Norte 22 Norte 0 -- -- 73
2019-10-08 05:00:00 21.8 6 Norte 24 Norte 0 -- -- 73
2019-10-08 04:00:00 22 9 Norte 21 Norte 0 -- -- 72
2019-10-08 03:00:00 22.1 8 Norte 21 Norte 0 -- -- 71
2019-10-08 02:00:00 22.1 3 Norte 17 Norte 0 -- -- 72
2019-10-08 01:00:00 22.4 8 Norte 22 Norte 0 -- -- 71
2019-10-08 00:00:00 22.5 8 Norte 24 Norte 0 -- -- 69
2019-10-07 23:00:00 22.8 13 Norte 31 Norte 0 -- -- 66
2019-10-07 22:00:00 23 13 Norte 35 Norte 0 -- -- 65
2019-10-07 21:00:00 23.1 14 Norte 33 Norte 0 -- -- 66
2019-10-07 20:00:00 23.4 13 Norte 31 Norte 0 -- -- 66
2019-10-07 19:00:00 24.2 9 Norte 25 Nordeste 0 -- -- 61
2019-10-07 18:00:00 25.2 14 Norte 28 Norte 0 -- -- 59
2019-10-07 17:00:00 27 13 Norte 28 Norte 0 -- -- 54
2019-10-07 16:00:00 27.6 9 Norte 30 Sur 0 -- -- 54
2019-10-07 15:00:00 26.7 14 Sur 34 Sudeste 0 -- -- 59
2019-10-07 14:00:00 25.2 14 Sudeste 32 Sudeste 0 -- -- 63
2019-10-07 13:00:00 25.5 8 Sur 25 Sudeste 0 -- -- 62
2019-10-07 12:00:00 25.3 13 Sudeste 27 Sudeste 0 -- -- 59
2019-10-07 11:00:00 25.2 3 Este 16 Norte 0 -- -- 60
2019-10-07 10:00:00 23.2 3 Norte 18 Norte 0 -- -- 67
2019-10-07 09:00:00 22 6 Norte 29 Norte 0 -- -- 70
2019-10-07 08:00:00 21.7 9 Norte 23 Norte 0 -- -- 71
2019-10-07 07:00:00 21.7 10 Norte 24 Norte 0 -- -- 71
2019-10-07 06:00:00 21.7 6 Norte 27 Norte 0 -- -- 71
2019-10-07 05:00:00 21.7 9 Norte 28 Norte 0 -- -- 69
2019-10-07 04:00:00 21.9 9 Norte 22 Nordeste 0 -- -- 73
2019-10-07 03:00:00 21.9 8 Norte 22 Norte 0 -- -- 71
2019-10-07 02:00:00 22 8 Norte 24 Nordeste 0 -- -- 70
2019-10-07 01:00:00 22 5 Norte 20 Norte 0 -- -- 71
2019-10-07 00:00:00 22.3 7 Norte 22 Norte 0 -- -- 68
2019-10-06 23:00:00 22.4 6 Norte 18 Norte 0 -- -- 66
2019-10-06 22:00:00 22.9 7 Norte 20 Noroeste 0 -- -- 69
2019-10-06 21:00:00 22.8 5 Norte 17 Norte 0 -- -- 65
2019-10-06 20:00:00 23.2 8 Norte 21 Nordeste 0 -- -- 65
2019-10-06 19:00:00 23.8 6 Norte 28 Nordeste 0 -- -- 64
2019-10-06 18:00:00 24.2 10 Norte 28 Noroeste 0 -- -- 62
2019-10-06 17:00:00 25.7 8 Norte 26 Norte 0 -- -- 58
2019-10-06 16:00:00 25.4 10 Norte 27 Norte 0 -- -- 60
2019-10-06 15:00:00 26.2 8 Norte 26 Norte 0 -- -- 56
2019-10-06 14:00:00 25.7 11 Norte 26 Norte 0 -- -- 60
2019-10-06 13:00:00 25.5 10 Norte 24 Norte 0 -- -- 59
2019-10-06 12:00:00 24.7 9 Norte 22 Norte 0 -- -- 60
2019-10-06 11:00:00 23.8 8 Norte 21 Norte 0 -- -- 63
2019-10-06 10:00:00 22.8 9 Norte 18 Norte 0 -- -- 68
2019-10-06 09:00:00 22.2 7 Norte 21 Norte 0 -- -- 71
2019-10-06 08:00:00 22.3 7 Norte 26 Nordeste 0 -- -- 68
2019-10-06 07:00:00 22.4 7 Norte 18 Norte 0 -- -- 68
2019-10-06 06:00:00 22.5 6 Norte 19 Noroeste 0 -- -- 69
2019-10-06 05:00:00 22.5 5 Norte 19 Noroeste 0 -- -- 72
2019-10-06 04:00:00 22.3 4 Norte 24 Este 0 -- -- 72
2019-10-06 03:00:00 22.5 6 Norte 27 Nordeste 0 -- -- 72
2019-10-06 02:00:00 22.6 8 Norte 23 Nordeste 0 -- -- 71
2019-10-06 01:00:00 22.5 6 Norte 19 Nordeste 0 -- -- 72
2019-10-06 00:00:00 22.6 8 Norte 19 Noroeste 0 -- -- 72
2019-10-05 23:00:00 22.8 6 Norte 21 Nordeste 0 -- -- 74
2019-10-05 22:00:00 22.8 6 Norte 22 Nordeste 0 -- -- 72
2019-10-05 21:00:00 22.9 6 Norte 20 Nordeste 0 -- -- 72
2019-10-05 20:00:00 23.2 6 Norte 22 Noroeste 0 -- -- 73
2019-10-05 19:00:00 23.8 8 Norte 21 Norte 0 -- -- 72
2019-10-05 18:00:00 23.8 8 Norte 25 Norte 0 -- -- 76
2019-10-05 17:00:00 24.5 10 Norte 24 Norte 0 -- -- 75
2019-10-05 16:00:00 25 5 Nordeste 28 Norte 0 -- -- 69
2019-10-05 15:00:00 25.2 9 Norte 30 Noroeste 0 -- -- 68
2019-10-05 14:00:00 25.2 12 Norte 35 Norte 0 -- -- 67
2019-10-05 13:00:00 24.8 9 Norte 25 Norte 0 -- -- 69
2019-10-05 12:00:00 24.4 8 Norte 22 Norte 0 -- -- 75
2019-10-05 11:00:00 24.2 6 Norte 20 Norte 0 -- -- 74
2019-10-05 10:00:00 23.8 7 Norte 24 Noroeste 0 -- -- 72
2019-10-05 09:00:00 23.5 8 Norte 20 Noroeste 0 -- -- 74
2019-10-05 08:00:00 23.3 7 Norte 19 Norte 0 -- -- 74
2019-10-05 07:00:00 23.3 6 Norte 26 Norte 0 -- -- 74
2019-10-05 06:00:00 23.2 8 Norte 21 Norte 0 -- -- 75
2019-10-05 05:00:00 23.1 6 Norte 21 Norte 0 -- -- 70
2019-10-05 04:00:00 22.9 6 Norte 24 Noroeste 0 -- -- 72
2019-10-05 03:00:00 22.8 8 Norte 27 Noroeste 0 -- -- 71
2019-10-05 02:00:00 22.7 9 Norte 24 Noroeste 0 -- -- 72
2019-10-05 01:00:00 22.7 12 Norte 26 Noroeste 0 -- -- 71
2019-10-05 00:00:00 22.8 12 Norte 25 Norte 0 -- -- 71
2019-10-04 23:00:00 22.7 12 Norte 30 Nordeste 0 -- -- 71
2019-10-04 22:00:00 22.9 11 Norte 29 Noroeste 0 -- -- 72
2019-10-04 21:00:00 23.1 9 Norte 38 Norte 0 -- -- 70
2019-10-04 20:00:00 23.2 13 Norte 39 Norte 0 -- -- 69
2019-10-04 19:00:00 23.9 17 Norte 41 Norte 0 -- -- 67
2019-10-04 18:00:00 25 15 Norte 34 Norte 0 -- -- 62
2019-10-04 17:00:00 27.2 15 Norte 33 Norte 0 -- -- 52
2019-10-04 16:00:00 27.4 16 Norte 33 Norte 0 -- -- 53
2019-10-04 15:00:00 28.3 15 Norte 39 Norte 0 -- -- 49
2019-10-04 14:00:00 28.8 15 Norte 35 Norte 0 -- -- 46
2019-10-04 13:00:00 27.2 14 Norte 34 Noroeste 0 -- -- 53
2019-10-04 12:00:00 25.8 14 Norte 32 Norte 0 -- -- 60
2019-10-04 11:00:00 25 10 Norte 32 Norte 0 -- -- 66
2019-10-04 10:00:00 23.6 14 Norte 28 Nordeste 0 -- -- 70
2019-10-04 09:00:00 22.9 12 Norte 35 Norte 0 -- -- 73
2019-10-04 08:00:00 22.7 12 Norte 35 Nordeste 0 -- -- 73
2019-10-04 07:00:00 22.7 14 Norte 36 Nordeste 0 -- -- 73
2019-10-04 06:00:00 22.8 12 Norte 35 Norte 0 -- -- 72
2019-10-04 05:00:00 22.8 14 Norte 33 Norte 0 -- -- 74
2019-10-04 04:00:00 22.8 15 Norte 36 Norte 0 -- -- 72
2019-10-04 03:00:00 23.1 4 Norte 15 Nordeste 0 -- -- 66
2019-10-04 02:00:00 23.1 5 Sudoeste 14 Sudoeste 0 -- -- 75
2019-10-04 01:00:00 23.4 4 Oeste 17 Sudoeste 0 -- -- 74
2019-10-04 00:00:00 24.3 6 Nordeste 24 Nordeste 0 -- -- 61
2019-10-03 23:00:00 24.1 5 Nordeste 18 Norte 0 -- -- 63
2019-10-03 22:00:00 23.7 5 Sur 15 Sur 0 -- -- 70
2019-10-03 21:00:00 24.3 5 Sur 18 Este 0 -- -- 66
2019-10-03 20:00:00 25.1 3 Sur 18 Nordeste 0 -- -- 62
2019-10-03 19:00:00 26.6 6 Nordeste 21 Sudeste 0 -- -- 53
2019-10-03 18:00:00 26.6 9 Sur 26 Sudeste 0 -- -- 56
2019-10-03 17:00:00 28.6 12 Sur 27 Este 0 -- -- 52
2019-10-03 16:00:00 27.2 13 Sudeste 26 Sudeste 0 -- -- 58
2019-10-03 15:00:00 27 12 Sudeste 31 Sudeste 0 -- -- 61
2019-10-03 14:00:00 27.3 12 Sudeste 27 Sudeste 0 -- -- 61
2019-10-03 13:00:00 26.9 12 Sudeste 25 Sudeste 0 -- -- 62
2019-10-03 12:00:00 26.4 11 Sudeste 24 Sudeste 0 -- -- 63
2019-10-03 11:00:00 25.9 9 Sudeste 23 Sudeste 0 -- -- 65
2019-10-03 10:00:00 25.6 8 Sur 14 Sur 0 -- -- 66
2019-10-03 09:00:00 22 5 Norte 11 Norte 0 -- -- 53
2019-10-03 08:00:00 21.2 6 Norte 9 Norte 0 -- -- 55
2019-10-03 07:00:00 21.3 5 Norte 9 Norte 0 -- -- 55
2019-10-03 06:00:00 21.3 4 Norte 9 Norte 0 -- -- 54
2019-10-03 05:00:00 21 5 Norte 9 Norte 0 -- -- 58
2019-10-03 04:00:00 21.5 3 Norte 10 Norte 0 -- -- 57
2019-10-03 03:00:00 21.4 5 Norte 11 Norte 0 -- -- 58
2019-10-03 02:00:00 21.8 0 Calma 8 Norte 0 -- -- 60
2019-10-03 01:00:00 21.8 4 Norte 8 Norte 0 -- -- 60
2019-10-03 00:00:00 22.1 6 Norte 10 Norte 0 -- -- 60
2019-10-02 23:00:00 22.4 3 Norte 6 Norte 0 -- -- 60
2019-10-02 22:00:00 23.2 0 Calma 5 Norte 0 -- -- 63
2019-10-02 21:00:00 24.2 0 Calma 3 Nordeste 0 -- -- 63
2019-10-02 20:00:00 25.1 0 Calma 7 Sudoeste 0 -- -- 64
2019-10-02 19:00:00 25.3 5 Sudoeste 14 Sur 0 -- -- 65
2019-10-02 18:00:00 25.8 10 Sur 15 Sur 0 -- -- 67
2019-10-02 17:00:00 26.9 10 Sudeste 23 Sudeste 0 -- -- 65
2019-10-02 16:00:00 26.8 10 Sur 27 Sur 0 -- -- 67
2019-10-02 15:00:00 27.7 9 Sur 19 Sur 0 -- -- 65
2019-10-02 14:00:00 27.2 7 Sudeste 18 Sudeste 0 -- -- 65
2019-10-02 13:00:00 26.5 9 Sudeste 18 Sudeste 0 -- -- 69
2019-10-02 12:00:00 26.2 7 Sudeste 17 Sur 0 -- -- 69
2019-10-02 11:00:00 25.5 7 Sudeste 15 Sur 0 -- -- 70
2019-10-02 10:00:00 24.4 4 Sur 9 Sudeste 0 -- -- 72
2019-10-02 09:00:00 20.8 5 Norte 9 Norte 0 -- -- 69
2019-10-02 08:00:00 19.8 6 Norte 10 Norte 0 -- -- 70
2019-10-02 07:00:00 20 4 Norte 10 Norte 0 -- -- 66
2019-10-02 06:00:00 20.3 5 Norte 8 Norte 0 -- -- 62
2019-10-02 05:00:00 20.8 3 Norte 8 Norte 0 -- -- 58
2019-10-02 04:00:00 21 5 Norte 10 Norte 0 -- -- 53
2019-10-02 03:00:00 21.4 3 Norte 9 Norte 0 -- -- 49
2019-10-02 02:00:00 21.6 3 Norte 8 Norte 0 -- -- 49
2019-10-02 01:00:00 22 3 Norte 9 Norte 0 -- -- 52
2019-10-02 00:00:00 22.2 2 Norte 8 Norte 0 -- -- 58
2019-10-01 23:00:00 22.9 5 Norte 8 Norte 0 -- -- 63
2019-10-01 22:00:00 24 3 Sudoeste 7 Sudoeste 0 -- -- 72
2019-10-01 21:00:00 24.7 4 Sur 10 Sur 0 -- -- 67
2019-10-01 20:00:00 25.6 5 Sur 15 Sudoeste 0 -- -- 62
2019-10-01 19:00:00 26.7 8 Sur 24 Sudoeste 0 -- -- 50
2019-10-01 18:00:00 27.1 10 Sudoeste 18 Sur 0 -- -- 51
2019-10-01 17:00:00 27.4 12 Sur 27 Sur 0 -- -- 52
2019-10-01 16:00:00 28 13 Sur 26 Sudeste 0 -- -- 55
2019-10-01 15:00:00 30.5 13 Sur 26 Sudeste 0 -- -- 38
2019-10-01 14:00:00 32 12 Sur 23 Sur 0 -- -- 31
2019-10-01 13:00:00 33.4 7 Sudeste 19 Sudoeste 0 -- -- 24
2019-10-01 12:00:00 33.3 7 Sur 17 Sur 0 -- -- 24
2019-10-01 11:00:00 30.5 4 Sudeste 9 Sur 0 -- -- 34
2019-10-01 10:00:00 26.4 3 Sudeste 10 Norte 0 -- -- 41
2019-10-01 09:00:00 22.1 2 Norte 8 Norte 0 -- -- 39
2019-10-01 08:00:00 21.7 4 Norte 10 Norte 0 -- -- 37
2019-10-01 07:00:00 21.9 5 Norte 12 Norte 0 -- -- 37
2019-10-01 06:00:00 21.7 3 Norte 10 Norte 0 -- -- 37
2019-10-01 05:00:00 22.1 4 Norte 11 Norte 0 -- -- 37
2019-10-01 04:00:00 21.9 4 Norte 9 Norte 0 -- -- 40
2019-10-01 03:00:00 22.1 4 Norte 9 Norte 0 -- -- 47
2019-10-01 02:00:00 22.3 3 Norte 8 Norte 0 -- -- 52
2019-10-01 01:00:00 22.4 2 Norte 6 Norte 0 -- -- 55
2019-10-01 00:00:00 23.5 4 Norte 6 Norte 0 -- -- 51
2019-09-30 23:00:00 25.4 2 Nordeste 13 Este 0 -- -- 50
2019-09-30 22:00:00 26.5 3 Norte 24 Norte 0 -- -- 33
2019-09-30 21:00:00 26.9 14 Nordeste 29 Norte 0 -- -- 41
2019-09-30 20:00:00 26.3 14 Nordeste 31 Nordeste 0 -- -- 48
2019-09-30 19:00:00 26.6 14 Nordeste 33 Nordeste 0 -- -- 49
2019-09-30 18:00:00 27.8 16 Nordeste 32 Norte 0 -- -- 49
2019-09-30 17:00:00 29.7 16 Nordeste 32 Nordeste 0 -- -- 38
2019-09-30 16:00:00 29.8 17 Nordeste 33 Nordeste 0 -- -- 49
2019-09-30 15:00:00 30.2 16 Nordeste 33 Nordeste 0 -- -- 47
2019-09-30 14:00:00 29.2 6 Sudeste 11 Sudeste 0 -- -- 54
2019-09-30 13:00:00 28.6 5 Este 21 Sudoeste 0 -- -- 52
2019-09-30 12:00:00 27.4 4 Sudeste 13 Sudeste 0 -- -- 62
2019-09-30 11:00:00 26.7 5 Sudeste 13 Sudeste 0 -- -- 63
2019-09-30 10:00:00 24.4 4 Sur 9 Norte 0 -- -- 66
2019-09-30 09:00:00 21 5 Norte 9 Norte 0 -- -- 61
2019-09-30 08:00:00 20.6 3 Norte 8 Norte 0 -- -- 67
2019-09-30 07:00:00 20.8 5 Norte 9 Norte 0 -- -- 76
2019-09-30 06:00:00 22.1 0 Calma 15 Norte 0 -- -- 78
2019-09-30 05:00:00 21.1 2 Norte 8 Norte 0 -- -- 79
2019-09-30 04:00:00 22 3 Sudoeste 8 Oeste 0 -- -- 81
2019-09-30 03:00:00 22.4 0 Calma 9 Sur 0 -- -- 75
2019-09-30 02:00:00 22.7 3 Noroeste 9 Sudoeste 0 -- -- 77
2019-09-30 01:00:00 22.5 0 Calma 9 Sur 0 -- -- 74
2019-09-30 00:00:00 22.8 4 Norte 6 Norte 0 -- -- 72
2019-09-29 23:00:00 23.8 2 Norte 9 Oeste 0 -- -- 71
2019-09-29 22:00:00 24.4 5 Sudoeste 10 Sudoeste 0 -- -- 71
2019-09-29 21:00:00 24.8 2 Sudoeste 18 Nordeste 0 -- -- 68
2019-09-29 20:00:00 25.2 9 Nordeste 21 Norte 0 -- -- 64
2019-09-29 19:00:00 26.4 4 Norte 15 Norte 0 -- -- 61
2019-09-29 18:00:00 27.3 5 Sur 12 Sur 0 -- -- 60
2019-09-29 17:00:00 27.9 7 Sur 17 Sudeste 0 -- -- 59
2019-09-29 16:00:00 27.6 9 Sur 18 Sudeste 0 -- -- 58
2019-09-29 15:00:00 27.7 6 Sudeste 23 Sudeste 0 -- -- 58
2019-09-29 14:00:00 26.7 8 Sudeste 25 Sudeste 0 -- -- 61
2019-09-29 13:00:00 25.1 16 Sudeste 30 Sudeste 0 -- -- 67
2019-09-29 12:00:00 25 14 Sudeste 28 Sur 0 -- -- 66
2019-09-29 11:00:00 25.4 11 Sudeste 22 Sudeste 0 -- -- 62
2019-09-29 10:00:00 24.5 4 Este 16 Norte 0 -- -- 62
2019-09-29 09:00:00 22.7 8 Norte 23 Norte 0 -- -- 72
2019-09-29 08:00:00 22.4 9 Norte 22 Nordeste 0 -- -- 75
2019-09-29 07:00:00 22.3 9 Norte 29 Norte 0 -- -- 73
2019-09-29 06:00:00 22.5 12 Norte 30 Norte 0 -- -- 69
2019-09-29 05:00:00 22.4 10 Norte 31 Norte 0 -- -- 72
2019-09-29 04:00:00 22.4 11 Norte 26 Norte 0 -- -- 72
2019-09-29 03:00:00 22.6 9 Norte 22 Norte 0 -- -- 71
2019-09-29 02:00:00 22.7 8 Norte 21 Norte 0 -- -- 73
2019-09-29 01:00:00 22.9 8 Norte 22 Norte 0 -- -- 70
2019-09-29 00:00:00 23.1 10 Norte 26 Nordeste 0 -- -- 67
2019-09-28 23:00:00 23.1 10 Norte 21 Norte 0 -- -- 69
2019-09-28 22:00:00 23 8 Norte 22 Norte 0 -- -- 70
2019-09-28 21:00:00 23.2 7 Norte 24 Norte 0 -- -- 66
2019-09-28 20:00:00 23.6 8 Norte 23 Norte 0 -- -- 65
2019-09-28 19:00:00 24.2 10 Norte 25 Norte 0 -- -- 64
2019-09-28 18:00:00 25.6 10 Norte 29 Norte 0 -- -- 57
2019-09-28 17:00:00 26.6 14 Norte 27 Norte 0 -- -- 54
2019-09-28 16:00:00 27.3 13 Norte 32 Noroeste 0 -- -- 52
2019-09-28 15:00:00 27.6 13 Norte 28 Noroeste 0 -- -- 53
2019-09-28 14:00:00 27.1 7 Noroeste 30 Sudeste 0 -- -- 53
2019-09-28 13:00:00 27.1 7 Noroeste 17 Norte 0 -- -- 54
2019-09-28 12:00:00 26.6 10 Norte 23 Noroeste 0 -- -- 54
2019-09-28 11:00:00 25.3 8 Norte 27 Noroeste 0 -- -- 61
2019-09-28 10:00:00 24 8 Norte 28 Norte 0 -- -- 65
2019-09-28 09:00:00 22.6 9 Norte 24 Norte 0 -- -- 70
2019-09-28 08:00:00 21.9 6 Norte 22 Norte 0 -- -- 71
2019-09-28 07:00:00 21.9 9 Norte 23 Noroeste 0 -- -- 72
2019-09-28 06:00:00 21.9 7 Norte 19 Norte 0 -- -- 72
2019-09-28 05:00:00 22.1 7 Norte 23 Norte 0 -- -- 71
2019-09-28 04:00:00 22.2 6 Norte 25 Norte 0 -- -- 71
2019-09-28 03:00:00 22.2 8 Norte 23 Norte 0 -- -- 72
2019-09-28 02:00:00 22.4 10 Norte 22 Norte 0 -- -- 71
2019-09-28 01:00:00 22.4 6 Norte 17 Nordeste 0 -- -- 71
2019-09-28 00:00:00 22.6 4 Norte 19 Norte 0 -- -- 70
2019-09-27 23:00:00 22.7 7 Norte 21 Noroeste 0 -- -- 69
2019-09-27 22:00:00 22.8 8 Norte 27 Norte 0 -- -- 69
2019-09-27 21:00:00 23.1 9 Norte 24 Norte 0 -- -- 68
2019-09-27 20:00:00 23.4 8 Norte 24 Norte 0 -- -- 66
2019-09-27 19:00:00 24.1 10 Norte 29 Norte 0 -- -- 64
2019-09-27 18:00:00 25.4 11 Norte 41 Norte 0 -- -- 61
2019-09-27 17:00:00 26.5 16 Norte 33 Nordeste 0 -- -- 53
2019-09-27 16:00:00 27 14 Norte 38 Norte 0 -- -- 54
2019-09-27 15:00:00 27.1 16 Norte 30 Nordeste 0 -- -- 58
2019-09-27 14:00:00 27.4 12 Norte 27 Norte 0 -- -- 52
2019-09-27 13:00:00 26.8 12 Norte 29 Norte 0 -- -- 53
2019-09-27 12:00:00 26 13 Norte 31 Norte 0 -- -- 59
2019-09-27 11:00:00 25.5 8 Norte 26 Norte 0 -- -- 58
2019-09-27 10:00:00 24.5 8 Norte 21 Norte 0 -- -- 62
2019-09-27 09:00:00 22.8 7 Norte 19 Norte 0 -- -- 70
2019-09-27 08:00:00 22.3 4 Norte 16 Nordeste 0 -- -- 70
2019-09-27 07:00:00 22.5 7 Norte 18 Noroeste 0 -- -- 67
2019-09-27 06:00:00 22.4 5 Norte 18 Nordeste 0 -- -- 71
2019-09-27 05:00:00 22.5 8 Norte 24 Nordeste 0 -- -- 71
2019-09-27 04:00:00 22.4 8 Norte 19 Norte 0 -- -- 69
2019-09-27 03:00:00 22.7 7 Norte 28 Nordeste 0 -- -- 70
2019-09-27 02:00:00 22.7 7 Norte 18 Norte 0 -- -- 66
2019-09-27 01:00:00 22.7 5 Norte 16 Norte 0 -- -- 69
2019-09-27 00:00:00 22.8 5 Norte 22 Norte 0 -- -- 66
2019-09-26 23:00:00 23 7 Norte 25 Norte 0 -- -- 66
2019-09-26 22:00:00 23.1 5 Norte 20 Norte 0 -- -- 65
2019-09-26 21:00:00 23.4 8 Norte 24 Nordeste 0 -- -- 71
2019-09-26 20:00:00 23.6 10 Norte 24 Nordeste 0 -- -- 64
2019-09-26 19:00:00 24.3 10 Norte 28 Nordeste 0 -- -- 61
2019-09-26 18:00:00 25.2 15 Norte 28 Nordeste 0 -- -- 59
2019-09-26 17:00:00 27 13 Norte 29 Norte 0 -- -- 52
2019-09-26 16:00:00 27.3 13 Norte 30 Norte 0 -- -- 54
2019-09-26 15:00:00 27.6 12 Norte 31 Norte 0 -- -- 51
2019-09-26 14:00:00 27 9 Norte 28 Norte 0 -- -- 55
2019-09-26 13:00:00 25.5 10 Norte 20 Norte 0 -- -- 61
2019-09-26 12:00:00 24.6 12 Norte 27 Norte 0 -- -- 66
2019-09-26 11:00:00 24.7 8 Norte 19 Norte 0 -- -- 66
2019-09-26 10:00:00 24.3 9 Norte 18 Norte 0 -- -- 66
2019-09-26 09:00:00 23.4 6 Norte 16 Nordeste 0 -- -- 68
2019-09-26 08:00:00 23.1 5 Norte 14 Norte 0 -- -- 71
2019-09-26 07:00:00 23.1 7 Norte 16 Norte 0 -- -- 68
2019-09-26 06:00:00 23.2 3 Norte 15 Norte 0 -- -- 71
2019-09-26 05:00:00 23.6 4 Norte 14 Norte 0 -- -- 73
2019-09-26 04:00:00 23.5 3 Norte 14 Norte 0 -- -- 72
2019-09-26 03:00:00 23.5 5 Norte 18 Norte 0 -- -- 71
2019-09-26 02:00:00 23.8 5 Norte 19 Norte 0 -- -- 69
2019-09-26 01:00:00 23.7 5 Norte 11 Nordeste 0 -- -- 70
2019-09-26 00:00:00 23.4 6 Norte 21 Norte 0 -- -- 72
2019-09-25 23:00:00 23.5 5 Norte 21 Norte 0 -- -- 71
2019-09-25 22:00:00 23.6 8 Norte 18 Nordeste 0 -- -- 71
2019-09-25 21:00:00 23.6 8 Norte 22 Noroeste 0 -- -- 68
2019-09-25 20:00:00 23.7 9 Norte 26 Nordeste 0 -- -- 68
2019-09-25 19:00:00 24.1 9 Norte 31 Norte 0 -- -- 66
2019-09-25 18:00:00 25.2 11 Norte 34 Nordeste 0 -- -- 62
2019-09-25 17:00:00 26.4 13 Norte 33 Norte 0 -- -- 57
2019-09-25 16:00:00 26.8 12 Nordeste 40 Nordeste 0 -- -- 56
2019-09-25 15:00:00 26.6 14 Nordeste 38 Norte 0 -- -- 56
2019-09-25 14:00:00 26.8 13 Norte 41 Norte 0 -- -- 55
2019-09-25 13:00:00 26.5 12 Norte 27 Noroeste 0 -- -- 56
2019-09-25 12:00:00 26.2 10 Norte 30 Nordeste 0 -- -- 58
2019-09-25 11:00:00 25.4 10 Norte 23 Norte 0 -- -- 60
2019-09-25 10:00:00 24.4 9 Nordeste 23 Nordeste 0 -- -- 63
2019-09-25 09:00:00 23 6 Norte 20 Norte 0 -- -- 69
2019-09-25 08:00:00 22.3 5 Norte 22 Norte 0 -- -- 71
2019-09-25 07:00:00 22.3 9 Norte 22 Nordeste 0 -- -- 71
2019-09-25 06:00:00 22.1 4 Norte 17 Nordeste 0 -- -- 71
2019-09-25 05:00:00 22.4 7 Norte 21 Este 0 -- -- 70
2019-09-25 04:00:00 22.3 7 Norte 21 Norte 0 -- -- 69
2019-09-25 03:00:00 22.2 6 Norte 19 Noroeste 0 -- -- 69
2019-09-25 02:00:00 22.3 6 Norte 19 Norte 0 -- -- 67
2019-09-25 01:00:00 22.4 5 Norte 22 Norte 0 -- -- 69
2019-09-25 00:00:00 22.5 5 Norte 24 Norte 0 -- -- 66
2019-09-24 23:00:00 22.5 6 Norte 18 Norte 0 -- -- 69
2019-09-24 22:00:00 22.6 7 Norte 27 Noroeste 0 -- -- 65
2019-09-24 21:00:00 22.9 8 Norte 23 Norte 0 -- -- 65
2019-09-24 20:00:00 23.2 6 Norte 24 Norte 0 -- -- 66
2019-09-24 19:00:00 23.8 9 Norte 31 Nordeste 0 -- -- 61
2019-09-24 18:00:00 25.1 13 Norte 37 Nordeste 0 -- -- 59
2019-09-24 17:00:00 26.1 10 Norte 32 Nordeste 0 -- -- 56
2019-09-24 16:00:00 26.7 13 Norte 31 Norte 0 -- -- 53
2019-09-24 15:00:00 26.5 15 Norte 36 Norte 0 -- -- 54
2019-09-24 14:00:00 26.5 13 Norte 31 Nordeste 0 -- -- 53
2019-09-24 13:00:00 26.1 12 Norte 28 Norte 0 -- -- 56
2019-09-24 12:00:00 25 9 Norte 25 Norte 0 -- -- 60
2019-09-24 11:00:00 24.1 7 Norte 25 Nordeste 0 -- -- 68
2019-09-24 10:00:00 24.2 8 Norte 22 Nordeste 0 -- -- 64
2019-09-24 09:00:00 22.7 8 Norte 22 Norte 0 -- -- 66
2019-09-24 08:00:00 22.1 7 Norte 18 Norte 0 -- -- 69
2019-09-24 07:00:00 22.3 7 Noroeste 18 Noroeste 0 -- -- 70
2019-09-24 06:00:00 22.2 5 Norte 12 Noroeste 0 -- -- 71
2019-09-24 05:00:00 22.2 4 Norte 13 Noroeste 0 -- -- 71
2019-09-24 04:00:00 22.4 5 Norte 20 Noroeste 0 -- -- 71
2019-09-24 03:00:00 22.5 4 Norte 13 Norte 0 -- -- 70
2019-09-24 02:00:00 22.7 7 Norte 15 Norte 0 -- -- 70
2019-09-24 01:00:00 22.7 5 Norte 14 Norte 0 -- -- 70
2019-09-24 00:00:00 22.8 6 Norte 14 Nordeste 0 -- -- 69
2019-09-23 23:00:00 22.9 6 Norte 18 Noroeste 0 -- -- 69
2019-09-23 22:00:00 23.1 4 Norte 17 Norte 0 -- -- 68
2019-09-23 21:00:00 23.3 6 Norte 22 Norte 0 -- -- 65
2019-09-23 20:00:00 23.7 8 Norte 19 Norte 0 -- -- 62
2019-09-23 19:00:00 24.4 9 Norte 23 Nordeste 0 -- -- 63
2019-09-23 18:00:00 25.2 11 Norte 24 Norte 0 -- -- 58
2019-09-23 17:00:00 26.5 7 Norte 30 Nordeste 0 -- -- 55
2019-09-23 16:00:00 26.7 10 Norte 28 Noroeste 0 -- -- 55
2019-09-23 15:00:00 26.7 13 Norte 30 Noroeste 0 -- -- 53
2019-09-23 14:00:00 27.1 10 Norte 32 Norte 0 -- -- 53
2019-09-23 13:00:00 26.4 13 Norte 26 Noroeste 0 -- -- 55
2019-09-23 12:00:00 26 10 Norte 26 Noroeste 0 -- -- 57
2019-09-23 11:00:00 24.5 6 Norte 21 Nordeste 0 -- -- 64
2019-09-23 10:00:00 23.4 6 Norte 26 Nordeste 0 -- -- 73
2019-09-23 09:00:00 22.6 7 Norte 16 Norte 0 -- -- 71
2019-09-23 08:00:00 22.4 4 Norte 15 Norte 0 -- -- 72
2019-09-23 07:00:00 22.5 5 Norte 20 Nordeste 0 -- -- 74
2019-09-23 06:00:00 22.7 4 Norte 15 Nordeste 0 -- -- 71
2019-09-23 05:00:00 22.5 5 Norte 12 Noroeste 0 -- -- 72
2019-09-23 04:00:00 22.6 5 Norte 12 Norte 0 -- -- 71
2019-09-23 03:00:00 23 4 Norte 13 Nordeste 0 -- -- 71
2019-09-23 02:00:00 23.2 4 Norte 10 Norte 0 -- -- 72
2019-09-23 01:00:00 23.2 4 Norte 8 Norte 0 -- -- 70
2019-09-23 00:00:00 23.7 4 Norte 9 Norte 0 -- -- 71
2019-09-22 23:00:00 23.8 3 Noroeste 9 Norte 0 -- -- 74
2019-09-22 22:00:00 23.8 5 Norte 13 Norte 0 -- -- 76
2019-09-22 21:00:00 24 5 Norte 20 Norte 0 -- -- 81
2019-09-22 20:00:00 24.8 4 Noroeste 15 Norte 0 -- -- 75
2019-09-22 19:00:00 25.5 6 Norte 21 Norte 0 -- -- 74
2019-09-22 18:00:00 26.8 10 Norte 32 Norte 0 -- -- 69
2019-09-22 17:00:00 28.1 10 Norte 28 Norte 0 -- -- 63
2019-09-22 16:00:00 28.1 16 Norte 32 Nordeste 0 -- -- 64
2019-09-22 15:00:00 28.3 13 Norte 31 Norte 0 -- -- 64
2019-09-22 14:00:00 29.7 11 Norte 26 Nordeste 0 -- -- 55
2019-09-22 13:00:00 29.1 11 Norte 31 Norte 0 -- -- 57
2019-09-22 12:00:00 28.1 10 Norte 23 Norte 0 -- -- 61
2019-09-22 11:00:00 27.3 11 Norte 29 Norte 0 -- -- 64
2019-09-22 10:00:00 25.6 5 Sur 9 Sur 0 -- -- 66
2019-09-22 09:00:00 24 3 Nordeste 13 Nordeste 0 -- -- 70
2019-09-22 08:00:00 22.5 2 Sudoeste 8 Sur 0 -- -- 72
2019-09-22 07:00:00 22.3 0 Calma 9 Sudoeste 0 -- -- 72
2019-09-22 06:00:00 22.5 4 Sudoeste 9 Norte 0 -- -- 72
2019-09-22 05:00:00 21.2 3 Norte 6 Norte 0 -- -- 75
2019-09-22 04:00:00 21.2 2 Norte 6 Norte 0 -- -- 76
2019-09-22 03:00:00 21.4 3 Norte 6 Norte 0 -- -- 75
2019-09-22 02:00:00 21.8 2 Norte 4 Norte 0 -- -- 75
2019-09-22 01:00:00 22.6 0 Calma 5 Norte 0 -- -- 75
2019-09-22 00:00:00 22.7 0 Calma 8 Norte 0 -- -- 73
2019-09-21 23:00:00 23.5 2 Noroeste 10 Norte 0 -- -- 72
2019-09-21 22:00:00 23.8 2 Noroeste 9 Norte 0 -- -- 70
2019-09-21 21:00:00 24.1 4 Nordeste 13 Norte 0 -- -- 69
2019-09-21 20:00:00 24.7 6 Nordeste 19 Nordeste 0 -- -- 67
2019-09-21 19:00:00 24.9 4 Sur 12 Oeste 0 -- -- 68
2019-09-21 18:00:00 25.7 5 Sur 15 Sudeste 0 -- -- 65
2019-09-21 17:00:00 26.3 9 Sur 19 Sur 0 -- -- 62
2019-09-21 16:00:00 26.7 8 Sudeste 19 Sur 0 -- -- 60
2019-09-21 15:00:00 26.9 9 Sur 26 Sur 0 -- -- 61
2019-09-21 14:00:00 26.7 11 Sudeste 23 Sur 0 -- -- 60
2019-09-21 13:00:00 26.1 10 Sur 22 Sur 0 -- -- 61
2019-09-21 12:00:00 26.1 10 Sur 23 Sur 0 -- -- 61
2019-09-21 11:00:00 26 7 Sur 14 Sudoeste 0 -- -- 60
2019-09-21 10:00:00 24.7 6 Sur 12 Sur 0 -- -- 64
2019-09-21 09:00:00 20.3 2 Norte 7 Noroeste 0 -- -- 75
2019-09-21 08:00:00 20 5 Norte 8 Norte 0 -- -- 75
2019-09-21 07:00:00 19.9 4 Norte 8 Norte 0 -- -- 76
2019-09-21 06:00:00 20.4 4 Norte 6 Norte 0 -- -- 75
2019-09-21 05:00:00 22 0 Calma 11 Nordeste 0 -- -- 71
2019-09-21 04:00:00 22.3 4 Norte 12 Nordeste 0 -- -- 72
2019-09-21 03:00:00 22.4 3 Noroeste 22 Nordeste 0 -- -- 70
2019-09-21 02:00:00 22.6 6 Norte 14 Norte 0 -- -- 71
2019-09-21 01:00:00 22.7 0 Calma 20 Norte 0 -- -- 69
2019-09-21 00:00:00 23.1 8 Norte 20 Nordeste 0 -- -- 70
2019-09-20 23:00:00 23.3 9 Norte 21 Norte 0 -- -- 68
2019-09-20 22:00:00 23.7 8 Norte 22 Nordeste 0 -- -- 66
2019-09-20 21:00:00 23.7 9 Norte 25 Norte 0 -- -- 67
2019-09-20 20:00:00 24.1 11 Norte 26 Noroeste 0 -- -- 66
2019-09-20 19:00:00 24.9 12 Norte 31 Norte 0 -- -- 64
2019-09-20 18:00:00 26.6 10 Norte 28 Norte 0 -- -- 56
2019-09-20 17:00:00 28.5 12 Nordeste 32 Nordeste 0 -- -- 50
2019-09-20 16:00:00 28.3 13 Norte 30 Nordeste 0 -- -- 50
2019-09-20 15:00:00 28.4 12 Norte 31 Norte 0 -- -- 49
2019-09-20 14:00:00 29 10 Norte 24 Nordeste 0 -- -- 46
2019-09-20 13:00:00 27.9 9 Norte 25 Nordeste 0 -- -- 48
2019-09-20 12:00:00 26.8 8 Sur 23 Sudeste 0 -- -- 55
2019-09-20 11:00:00 26.1 7 Sur 26 Noroeste 0 -- -- 57
2019-09-20 10:00:00 24.1 10 Norte 19 Norte 0 -- -- 65
2019-09-20 09:00:00 22.8 8 Norte 20 Norte 0 -- -- 69
2019-09-20 08:00:00 22.3 8 Norte 25 Noroeste 0 -- -- 73
2019-09-20 07:00:00 22.1 6 Norte 25 Norte 0 -- -- 73
2019-09-20 06:00:00 22.2 9 Norte 26 Norte 0 -- -- 72
2019-09-20 05:00:00 22.3 10 Norte 22 Noroeste 0 -- -- 71
2019-09-20 04:00:00 22.4 12 Norte 28 Norte 0 -- -- 69
2019-09-20 03:00:00 22.6 13 Norte 24 Nordeste 0 -- -- 69
2019-09-20 02:00:00 22.5 10 Norte 24 Nordeste 0 -- -- 70
2019-09-20 01:00:00 22.5 7 Norte 23 Norte 0 -- -- 71
2019-09-20 00:00:00 22.7 11 Norte 41 Norte 0 -- -- 70
2019-09-19 23:00:00 22.9 9 Norte 24 Nordeste 0 -- -- 69
2019-09-19 22:00:00 23 8 Norte 22 Norte 0 -- -- 70
2019-09-19 21:00:00 23.2 9 Norte 30 Norte 0 -- -- 69
2019-09-19 20:00:00 23.6 11 Norte 36 Norte 0 -- -- 68
2019-09-19 19:00:00 24.4 9 Norte 27 Norte 0 -- -- 64
2019-09-19 18:00:00 26 11 Norte 30 Nordeste 0 -- -- 57
2019-09-19 17:00:00 27 14 Norte 31 Norte 0 -- -- 53
2019-09-19 16:00:00 27.3 13 Norte 34 Norte 0 -- -- 54
2019-09-19 15:00:00 27 14 Nordeste 28 Norte 0 -- -- 55
2019-09-19 14:00:00 26.8 12 Norte 31 Nordeste 0 -- -- 57
2019-09-19 13:00:00 26.2 13 Nordeste 29 Noroeste 0 -- -- 55
2019-09-19 12:00:00 26.1 7 Nordeste 23 Nordeste 0 -- -- 57
2019-09-19 11:00:00 25.1 9 Norte 26 Norte 0 -- -- 62
2019-09-19 10:00:00 24.1 9 Nordeste 23 Nordeste 0 -- -- 64
2019-09-19 09:00:00 22.6 8 Norte 23 Norte 0 -- -- 71
2019-09-19 08:00:00 22.3 5 Norte 17 Norte 0 -- -- 74
2019-09-19 07:00:00 22.2 5 Norte 23 Norte 0 -- -- 73
2019-09-19 06:00:00 22.2 8 Norte 20 Norte 0 -- -- 73
2019-09-19 05:00:00 22.5 8 Norte 19 Norte 0 -- -- 74
2019-09-19 04:00:00 22.4 3 Norte 17 Noroeste 0 -- -- 72
2019-09-19 03:00:00 22.3 8 Norte 21 Norte 0 -- -- 71
2019-09-19 02:00:00 22.4 7 Norte 21 Norte 0 -- -- 72
2019-09-19 01:00:00 22.4 4 Norte 13 Norte 0 -- -- 70
2019-09-19 00:00:00 22.6 3 Norte 14 Noroeste 0 -- -- 70
2019-09-18 23:00:00 22.8 8 Norte 19 Norte 0 -- -- 70
2019-09-18 22:00:00 23 8 Norte 20 Norte 0 -- -- 69
2019-09-18 21:00:00 23.3 9 Norte 26 Norte 0 -- -- 66
2019-09-18 20:00:00 24.2 4 Norte 22 Noroeste 0 -- -- 64
2019-09-18 19:00:00 24.7 9 Norte 26 Noroeste 0 -- -- 61
2019-09-18 18:00:00 26.5 11 Norte 22 Norte 0 -- -- 56
2019-09-18 17:00:00 28.7 6 Norte 21 Noroeste 0 -- -- 49
2019-09-18 16:00:00 28.5 12 Norte 27 Sudeste 0 -- -- 49
2019-09-18 15:00:00 28.2 10 Sudeste 28 Sudeste 0 -- -- 50
2019-09-18 14:00:00 28.1 11 Norte 25 Norte 0 -- -- 46
2019-09-18 13:00:00 27.6 8 Norte 20 Norte 0 -- -- 49
2019-09-18 12:00:00 26.5 10 Norte 20 Norte 0 -- -- 53
2019-09-18 11:00:00 24.9 5 Norte 21 Noroeste 0 -- -- 59
2019-09-18 10:00:00 23.8 6 Norte 16 Norte 0 -- -- 61
2019-09-18 09:00:00 21.9 3 Norte 9 Norte 0 -- -- 69
2019-09-18 08:00:00 20.9 3 Noroeste 9 Noroeste 0 -- -- 72
2019-09-18 07:00:00 21.6 5 Norte 15 Norte 0 -- -- 69
2019-09-18 06:00:00 21.9 5 Norte 18 Nordeste 0 -- -- 69
2019-09-18 05:00:00 21.9 7 Norte 18 Nordeste 0 -- -- 71
2019-09-18 04:00:00 21.9 5 Norte 16 Noroeste 0 -- -- 69
2019-09-18 03:00:00 22 4 Norte 19 Norte 0 -- -- 69
2019-09-18 02:00:00 22.1 5 Norte 20 Norte 0 -- -- 69
2019-09-18 01:00:00 22.3 6 Norte 15 Norte 0 -- -- 70
2019-09-18 00:00:00 22.5 6 Norte 18 Nordeste 0 -- -- 70
2019-09-17 23:00:00 22.7 4 Norte 19 Norte 0 -- -- 68
2019-09-17 22:00:00 23 9 Norte 22 Norte 0 -- -- 68
2019-09-17 21:00:00 23.4 9 Norte 22 Norte 0 -- -- 69
2019-09-17 20:00:00 24 9 Norte 25 Norte 0 -- -- 64